Ana Sayfa
METAR-TAF:

METAR-TAF

Havaalanları :

Balıkesir Koca Seyit Havalimanı

Edremit, Türkiye

Enlem: 39-33-16N, Boylam: 27-00-49E, yükseklik: 15 m

Güncel hava durumu gözlemi

Rapor saat 20:50 UTC de 2 saat ve 56 dakika önce yapıldı.
Rüzgar kuzeydoğudan 8 kt
Sıcaklık 10°C
Nem 82%
Basınç 1003 hPa
Görüş mesafesi 10 km veya daha fazla
3000 ft yükseklikte parçalı bulutlu
9000 ft yükseklikte parçalı çok bulutlu

METAR: LTFD 232050Z 05008KT 9999 SCT030 BKN090 10/07 Q1003 RESHRA

Saat: 02:46 (23:46 UTC)

Tahmin

Rapor saat 22:40 UTC de 1 saat ve 6 dakika önce yapıldı.
Ayın 24'si saat 00 UTC'den ayın 24'si saat 09 UTC'ye kadar geçerli Tahmin
Rüzgar doğu/kuzeydoğudan 8 kt
Görüş mesafesi 10 km veya daha fazla
3500 ft yükseklikte parçalı bulutlu
10000 ft yükseklikte parçalı çok bulutlu
hafif sağanak yağmurlar

TAF: LTFD 232240Z 2400/2409 06008KT 9999 -SHRA SCT035 BKN100

4.000'den fazla havaalanı için hava durumu gözlemleri ve tahminleri (METAR ve TAF raporları).

Kullanılabilir istasyonlar harita üzerinde sarı ve kırmızı noktalarla gösterilir.

İstasyonun adını görmek için fareyi noktanın üzerinde gezdirin.

Sonrasında hava gözlem ve tahminlerini görmek için tıklayın.

Haritayı değiştirmek için: yaklaştırmak için siyah artı işaretli yeşil düğmeye ve uzaklaştırmak için de eksi işaretli düğmeye hızla tıklayın; bitişik haritalar için yeşil okları kullanın.


METAR-TAF: